createdAt,value
2019-03-19T00:00:12.535Z,89.04
2019-03-19T00:02:39.307Z,89.17
2019-03-19T00:05:06.107Z,89.38
2019-03-19T00:07:33.673Z,89.71
2019-03-19T00:10:00.378Z,89.46
2019-03-19T00:12:27.193Z,89.20
2019-03-19T00:14:53.896Z,89.02
2019-03-19T00:17:20.670Z,88.86
2019-03-19T00:19:47.734Z,88.87
2019-03-19T00:22:14.704Z,89.03
2019-03-19T00:24:41.302Z,89.18
2019-03-19T00:27:07.972Z,89.31
2019-03-19T00:29:34.868Z,89.55
2019-03-19T00:32:02.101Z,90.04
2019-03-19T00:34:28.783Z,90.14
2019-03-19T00:36:55.393Z,90.41
2019-03-19T00:39:22.187Z,90.44
2019-03-19T00:41:48.774Z,90.34
2019-03-19T00:44:15.591Z,90.41
2019-03-19T00:46:42.173Z,90.50
2019-03-19T00:49:08.874Z,90.41
2019-03-19T00:51:35.659Z,90.54
2019-03-19T00:54:02.377Z,90.66
2019-03-19T00:56:29.065Z,90.74
2019-03-19T00:58:55.760Z,90.79
2019-03-19T01:01:22.527Z,91.01
2019-03-19T01:03:49.339Z,91.06
2019-03-19T01:06:16.129Z,91.11
2019-03-19T01:08:42.822Z,91.36
2019-03-19T01:11:09.414Z,91.31
2019-03-19T01:13:36.218Z,91.37
2019-03-19T01:16:03.348Z,91.25
2019-03-19T01:18:29.938Z,91.11
2019-03-19T01:20:56.752Z,91.04
2019-03-19T01:23:23.432Z,90.40
2019-03-19T01:25:55.698Z,90.25
2019-03-19T01:28:18.754Z,90.23
2019-03-19T01:30:45.867Z,90.24
2019-03-19T01:33:12.457Z,90.04
2019-03-19T01:35:39.175Z,89.81
2019-03-19T01:38:05.956Z,89.59
2019-03-19T01:40:32.771Z,89.65
2019-03-19T01:42:59.875Z,89.93
2019-03-19T01:45:26.576Z,89.86
2019-03-19T01:47:53.161Z,89.91
2019-03-19T01:50:19.882Z,90.14
2019-03-19T01:52:47.709Z,90.27
2019-03-19T01:55:14.512Z,90.35
2019-03-19T01:57:41.318Z,90.41
2019-03-19T02:00:08.690Z,90.37
2019-03-19T02:02:35.473Z,90.51
2019-03-19T02:05:02.180Z,90.77
2019-03-19T02:07:28.973Z,90.94
2019-03-19T02:09:55.763Z,91.10
2019-03-19T02:12:22.549Z,91.15
2019-03-19T02:14:49.246Z,91.32
2019-03-19T02:17:16.037Z,91.45
2019-03-19T02:19:42.756Z,91.47
2019-03-19T02:22:09.448Z,91.45
2019-03-19T02:24:36.043Z,91.56
2019-03-19T02:27:03.065Z,91.62
2019-03-19T02:29:29.654Z,91.51
2019-03-19T02:31:56.391Z,91.28
2019-03-19T02:34:25.020Z,91.34
2019-03-19T02:36:51.774Z,91.34
2019-03-19T02:39:18.370Z,91.33
2019-03-19T02:41:46.235Z,91.34
2019-03-19T02:44:12.917Z,91.35
2019-03-19T02:46:41.514Z,91.28
2019-03-19T02:49:08.310Z,91.44
2019-03-19T02:51:34.901Z,90.98
2019-03-19T02:54:01.630Z,90.71
2019-03-19T02:56:33.172Z,90.54
2019-03-19T02:58:57.067Z,90.47
2019-03-19T03:01:23.672Z,90.51
2019-03-19T03:03:50.245Z,90.79
2019-03-19T03:06:16.940Z,90.98
2019-03-19T03:08:43.717Z,91.21
2019-03-19T03:11:10.410Z,91.40
2019-03-19T03:13:37.421Z,91.48
2019-03-19T03:16:04.219Z,91.59
2019-03-19T03:18:30.989Z,91.69
2019-03-19T03:20:57.684Z,91.70
2019-03-19T03:23:25.556Z,91.14
2019-03-19T03:25:52.140Z,90.95
2019-03-19T03:28:18.820Z,90.75
2019-03-19T03:30:45.812Z,90.63
2019-03-19T03:33:12.529Z,90.35
2019-03-19T03:35:39.227Z,90.29
2019-03-19T03:38:06.003Z,90.33
2019-03-19T03:40:32.795Z,90.31
2019-03-19T03:42:59.577Z,90.50
2019-03-19T03:45:26.969Z,90.58
2019-03-19T03:47:53.761Z,90.40
2019-03-19T03:50:20.507Z,90.39
2019-03-19T03:52:47.160Z,90.45
2019-03-19T03:55:14.026Z,90.43
2019-03-19T03:57:40.810Z,90.63
2019-03-19T04:00:10.116Z,90.62
2019-03-19T04:02:36.789Z,90.88
2019-03-19T04:05:04.239Z,90.86
2019-03-19T04:07:30.931Z,90.86
2019-03-19T04:09:57.614Z,90.95
2019-03-19T04:12:24.302Z,91.04
2019-03-19T04:14:51.075Z,91.07
2019-03-19T04:17:17.878Z,91.26
2019-03-19T04:19:44.544Z,91.38
2019-03-19T04:22:11.332Z,91.21
2019-03-19T04:24:38.204Z,91.06
2019-03-19T04:27:15.473Z,90.92
2019-03-19T04:29:33.469Z,91.05
2019-03-19T04:32:00.077Z,91.01
2019-03-19T04:34:26.660Z,91.12
2019-03-19T04:36:53.359Z,91.13
2019-03-19T04:39:20.028Z,91.30
2019-03-19T04:41:46.740Z,91.57
2019-03-19T04:44:13.308Z,91.58
2019-03-19T04:46:40.117Z,91.84
2019-03-19T04:49:06.681Z,91.81
2019-03-19T04:51:33.454Z,91.91
2019-03-19T04:54:00.058Z,91.92
2019-03-19T04:56:26.758Z,91.84
2019-03-19T04:58:53.331Z,91.92
2019-03-19T05:01:20.149Z,91.87
2019-03-19T05:03:46.725Z,92.12
2019-03-19T05:06:13.421Z,91.92
2019-03-19T05:08:39.994Z,91.92
2019-03-19T05:11:06.719Z,92.08
2019-03-19T05:13:33.288Z,92.08
2019-03-19T05:16:00.154Z,92.29
2019-03-19T05:18:26.929Z,92.47
2019-03-19T05:20:55.171Z,92.47
2019-03-19T05:23:21.741Z,92.44
2019-03-19T05:25:48.311Z,92.62
2019-03-19T05:28:14.999Z,92.68
2019-03-19T05:30:41.572Z,92.58
2019-03-19T05:33:08.260Z,92.72
2019-03-19T05:35:34.974Z,92.71
2019-03-19T05:38:01.749Z,92.80
2019-03-19T05:40:28.403Z,92.95
2019-03-19T05:42:54.993Z,92.99
2019-03-19T05:45:21.663Z,93.13
2019-03-19T05:47:48.253Z,93.08
2019-03-19T05:50:15.035Z,93.12
2019-03-19T05:52:41.828Z,92.98
2019-03-19T05:55:09.402Z,92.87
2019-03-19T05:57:36.165Z,92.76
2019-03-19T06:00:03.892Z,92.55
2019-03-19T06:02:30.560Z,92.32
2019-03-19T06:04:57.150Z,92.12
2019-03-19T06:07:23.723Z,91.94
2019-03-19T06:09:50.528Z,91.78
2019-03-19T06:12:17.314Z,91.83
2019-03-19T06:14:43.989Z,91.43
2019-03-19T06:17:10.587Z,91.34
2019-03-19T06:19:37.155Z,91.38
2019-03-19T06:22:03.841Z,91.02
2019-03-19T06:24:30.602Z,90.71
2019-03-19T06:26:57.292Z,90.33
2019-03-19T06:29:23.969Z,89.76
2019-03-19T06:31:50.660Z,89.98
2019-03-19T06:34:17.328Z,89.74
2019-03-19T06:36:44.047Z,89.29
2019-03-19T06:39:10.595Z,89.16
2019-03-19T06:41:37.288Z,89.59
2019-03-19T06:44:04.065Z,89.24
2019-03-19T06:46:30.843Z,89.06
2019-03-19T06:48:57.538Z,88.02
2019-03-19T06:51:24.122Z,87.63
2019-03-19T06:53:50.713Z,87.17
2019-03-19T06:56:17.425Z,87.05
2019-03-19T06:58:44.214Z,86.87
2019-03-19T07:01:10.880Z,86.58
2019-03-19T07:03:37.572Z,86.45
2019-03-19T07:06:04.347Z,84.54
2019-03-19T07:08:31.036Z,83.93
2019-03-19T07:10:57.718Z,83.73
2019-03-19T07:13:24.321Z,83.62
2019-03-19T07:15:50.995Z,81.68
2019-03-19T07:18:17.794Z,82.30
2019-03-19T07:20:44.392Z,82.11
2019-03-19T07:23:11.177Z,81.92
2019-03-19T07:25:37.961Z,82.04
2019-03-19T07:28:04.763Z,82.64
2019-03-19T07:30:31.539Z,82.03
2019-03-19T07:32:58.225Z,81.83
2019-03-19T07:35:25.017Z,81.12
2019-03-19T07:37:51.802Z,81.80
2019-03-19T07:40:18.573Z,81.46
2019-03-19T07:42:45.366Z,80.74
2019-03-19T07:45:13.103Z,79.56
2019-03-19T07:47:39.923Z,78.55
2019-03-19T07:50:08.438Z,78.37
2019-03-19T07:52:35.109Z,79.13
2019-03-19T07:55:01.781Z,78.50
2019-03-19T07:57:29.585Z,78.58
2019-03-19T07:59:56.367Z,79.38
2019-03-19T08:02:23.174Z,78.68
2019-03-19T08:04:49.749Z,75.08
2019-03-19T08:07:16.429Z,76.43
2019-03-19T08:09:43.123Z,77.29
2019-03-19T08:12:09.702Z,77.02
2019-03-19T08:14:36.398Z,77.02
2019-03-19T08:17:03.164Z,79.28
2019-03-19T08:19:29.970Z,79.83
2019-03-19T08:21:56.759Z,78.60
2019-03-19T08:24:23.450Z,77.17
2019-03-19T08:27:09.657Z,76.53
2019-03-19T08:29:36.366Z,76.93
2019-03-19T08:32:03.160Z,76.17
2019-03-19T08:34:29.871Z,76.53
2019-03-19T08:36:56.545Z,76.53
2019-03-19T08:39:23.253Z,73.87
2019-03-19T08:41:49.798Z,73.61
2019-03-19T08:44:16.393Z,74.29
2019-03-19T08:46:43.052Z,73.76
2019-03-19T08:49:09.840Z,72.52
2019-03-19T08:51:36.538Z,72.46
2019-03-19T08:54:03.334Z,70.42
2019-03-19T08:56:30.053Z,67.88
2019-03-19T08:59:05.519Z,62.12
2019-03-19T09:01:25.307Z,61.05
2019-03-19T09:03:51.892Z,58.56
2019-03-19T09:06:18.572Z,57.92
2019-03-19T09:08:45.149Z,58.88
2019-03-19T09:11:11.814Z,61.70
2019-03-19T09:13:38.411Z,59.31
2019-03-19T09:16:05.179Z,63.68
2019-03-19T09:18:31.855Z,63.00
2019-03-19T09:20:58.519Z,61.87
2019-03-19T09:23:25.313Z,58.67
2019-03-19T09:25:51.987Z,61.19
2019-03-19T09:28:18.673Z,63.25
2019-03-19T09:30:45.425Z,57.95
2019-03-19T09:33:12.114Z,59.64
2019-03-19T09:35:38.780Z,60.01
2019-03-19T09:38:05.432Z,56.03
2019-03-19T09:40:32.228Z,57.03
2019-03-19T09:42:59.030Z,50.92
2019-03-19T09:45:25.817Z,45.96
2019-03-19T09:47:52.387Z,42.60
2019-03-19T09:50:19.175Z,51.14
2019-03-19T09:52:45.954Z,52.92
2019-03-19T09:55:12.991Z,53.19
2019-03-19T09:57:39.759Z,49.93
2019-03-19T10:00:08.754Z,49.30
2019-03-19T10:02:35.435Z,54.80
2019-03-19T10:05:02.241Z,59.84
2019-03-19T10:07:28.911Z,57.09
2019-03-19T10:09:55.603Z,52.10
2019-03-19T10:12:22.373Z,51.85
2019-03-19T10:14:49.056Z,52.14
2019-03-19T10:17:15.728Z,54.98
2019-03-19T10:19:42.329Z,52.95
2019-03-19T10:22:08.975Z,44.78
2019-03-19T10:24:35.572Z,38.84
2019-03-19T10:27:02.240Z,34.82
2019-03-19T10:29:37.823Z,32.45
2019-03-19T10:31:57.508Z,34.26
2019-03-19T10:34:24.206Z,34.45
2019-03-19T10:36:50.975Z,37.53
2019-03-19T10:39:17.574Z,35.04
2019-03-19T10:41:44.151Z,27.39
2019-03-19T10:44:10.955Z,24.52
2019-03-19T10:46:37.611Z,38.85
2019-03-19T10:49:04.395Z,44.58
2019-03-19T10:51:31.169Z,48.95
2019-03-19T10:53:57.868Z,46.46
2019-03-19T10:56:24.552Z,39.86
2019-03-19T10:58:51.346Z,31.89
2019-03-19T11:01:18.017Z,32.80
2019-03-19T11:03:44.695Z,32.27
2019-03-19T11:06:12.403Z,34.71
2019-03-19T11:08:39.058Z,39.41
2019-03-19T11:11:05.871Z,38.43
2019-03-19T11:13:32.533Z,40.76
2019-03-19T11:15:59.285Z,40.31
2019-03-19T11:18:25.911Z,42.25
2019-03-19T11:20:52.645Z,32.48
2019-03-19T11:23:19.215Z,35.25
2019-03-19T11:25:54.137Z,41.50
2019-03-19T11:28:14.473Z,42.58
2019-03-19T11:30:41.158Z,45.06
2019-03-19T11:33:07.714Z,47.26
2019-03-19T11:35:34.406Z,49.47
2019-03-19T11:38:01.079Z,44.94
2019-03-19T11:40:27.815Z,36.10
2019-03-19T11:42:54.495Z,41.48
2019-03-19T11:45:21.300Z,41.67
2019-03-19T11:47:48.072Z,42.26
2019-03-19T11:50:19.240Z,36.58
2019-03-19T11:52:46.027Z,34.01
2019-03-19T11:55:12.947Z,34.15
2019-03-19T11:57:39.744Z,35.36
2019-03-19T12:00:11.695Z,36.73
2019-03-19T12:02:38.579Z,40.00
2019-03-19T12:05:06.245Z,45.62
2019-03-19T12:07:33.847Z,47.54
2019-03-19T12:10:00.529Z,46.73
2019-03-19T12:12:27.096Z,48.11
2019-03-19T12:14:53.675Z,47.21
2019-03-19T12:17:20.340Z,46.88
2019-03-19T12:19:47.033Z,47.39
2019-03-19T12:22:13.604Z,46.50
2019-03-19T12:24:40.382Z,37.31
2019-03-19T12:27:07.078Z,34.98
2019-03-19T12:29:33.849Z,37.57
2019-03-19T12:32:00.442Z,40.86
2019-03-19T12:34:27.006Z,43.96
2019-03-19T12:36:53.791Z,47.39
2019-03-19T12:39:20.361Z,48.72
2019-03-19T12:41:48.559Z,48.42
2019-03-19T12:44:15.410Z,49.07
2019-03-19T12:46:42.000Z,48.24
2019-03-19T12:49:08.773Z,44.29
2019-03-19T12:51:35.586Z,43.05
2019-03-19T12:54:02.370Z,42.24
2019-03-19T12:56:30.477Z,40.59
2019-03-19T12:58:57.212Z,42.25
2019-03-19T13:01:24.009Z,43.20
2019-03-19T13:03:50.883Z,45.52
2019-03-19T13:06:17.714Z,48.16
2019-03-19T13:08:44.395Z,46.77
2019-03-19T13:11:11.083Z,44.88
2019-03-19T13:13:37.838Z,44.75
2019-03-19T13:16:04.534Z,42.40
2019-03-19T13:18:31.274Z,38.08
2019-03-19T13:20:57.860Z,32.12
2019-03-19T13:23:26.291Z,26.87
2019-03-19T13:25:53.124Z,25.90
2019-03-19T13:28:19.785Z,30.19
2019-03-19T13:30:46.499Z,28.27
2019-03-19T13:33:13.267Z,22.52
2019-03-19T13:35:40.065Z,25.74
2019-03-19T13:38:06.739Z,28.79
2019-03-19T13:40:33.411Z,29.47
2019-03-19T13:43:00.082Z,32.50
2019-03-19T13:45:26.957Z,35.55
2019-03-19T13:47:53.725Z,39.83
2019-03-19T13:50:20.630Z,41.06
2019-03-19T13:52:47.520Z,41.93
2019-03-19T13:55:14.693Z,43.64
2019-03-19T13:57:41.482Z,44.36
2019-03-19T14:00:09.428Z,42.21
2019-03-19T14:02:36.122Z,37.23
2019-03-19T14:05:03.595Z,35.88
2019-03-19T14:07:30.280Z,31.64
2019-03-19T14:09:57.050Z,33.02
2019-03-19T14:12:23.743Z,31.93
2019-03-19T14:14:50.545Z,30.10
2019-03-19T14:17:17.332Z,28.47
2019-03-19T14:19:43.896Z,27.56
2019-03-19T14:22:10.692Z,32.35
2019-03-19T14:24:37.354Z,34.03
2019-03-19T14:27:04.042Z,27.94
2019-03-19T14:29:30.716Z,26.49
2019-03-19T14:31:57.391Z,29.04
2019-03-19T14:34:24.161Z,28.87
2019-03-19T14:36:50.962Z,28.95
2019-03-19T14:39:17.723Z,30.59
2019-03-19T14:41:45.643Z,30.96
2019-03-19T14:44:12.499Z,28.72
2019-03-19T14:46:40.020Z,28.26
2019-03-19T14:49:06.737Z,32.16
2019-03-19T14:51:33.420Z,32.98
2019-03-19T14:54:00.101Z,30.83
2019-03-19T14:56:26.699Z,28.08
2019-03-19T14:58:53.368Z,25.08
2019-03-19T15:01:20.066Z,23.29
2019-03-19T15:03:46.873Z,24.36
2019-03-19T15:06:13.529Z,30.73
2019-03-19T15:08:40.251Z,35.88
2019-03-19T15:11:07.252Z,38.60
2019-03-19T15:13:33.843Z,40.10
2019-03-19T15:16:00.713Z,38.03
2019-03-19T15:18:27.373Z,36.78
2019-03-19T15:20:53.942Z,34.58
2019-03-19T15:23:20.811Z,32.46
2019-03-19T15:25:47.486Z,30.34
2019-03-19T15:28:14.259Z,32.38
2019-03-19T15:30:40.927Z,34.70
2019-03-19T15:33:07.542Z,34.23
2019-03-19T15:35:34.249Z,31.65
2019-03-19T15:38:01.112Z,34.31
2019-03-19T15:40:27.798Z,34.17
2019-03-19T15:42:54.559Z,36.60
2019-03-19T15:45:21.311Z,38.84
2019-03-19T15:47:47.998Z,39.90
2019-03-19T15:50:14.954Z,39.48
2019-03-19T15:52:41.852Z,39.78
2019-03-19T15:55:08.729Z,40.21
2019-03-19T15:57:35.447Z,40.37
2019-03-19T16:00:03.432Z,40.35
2019-03-19T16:02:30.129Z,39.63
2019-03-19T16:04:56.795Z,39.19
2019-03-19T16:07:23.488Z,39.89
2019-03-19T16:09:50.147Z,40.14
2019-03-19T16:12:16.826Z,41.43
2019-03-19T16:14:43.387Z,41.95
2019-03-19T16:17:10.071Z,42.63
2019-03-19T16:19:36.630Z,42.57
2019-03-19T16:22:03.428Z,41.31
2019-03-19T16:24:30.105Z,39.02
2019-03-19T16:26:56.667Z,38.54
2019-03-19T16:29:23.353Z,40.44
2019-03-19T16:31:51.090Z,41.38
2019-03-19T16:34:18.216Z,41.73
2019-03-19T16:36:44.762Z,41.03
2019-03-19T16:39:11.349Z,41.77
2019-03-19T16:41:38.010Z,42.14
2019-03-19T16:44:04.811Z,42.84
2019-03-19T16:46:31.571Z,44.41
2019-03-19T16:48:58.275Z,43.82
2019-03-19T16:51:24.947Z,45.86
2019-03-19T16:53:51.639Z,46.45
2019-03-19T16:56:18.432Z,45.95
2019-03-19T16:58:45.113Z,46.11
2019-03-19T17:01:11.778Z,46.25
2019-03-19T17:03:38.472Z,47.23
2019-03-19T17:06:05.240Z,47.81
2019-03-19T17:08:31.926Z,47.62
2019-03-19T17:10:58.697Z,48.31
2019-03-19T17:13:25.290Z,48.33
2019-03-19T17:15:51.967Z,49.37
2019-03-19T17:18:18.653Z,49.51
2019-03-19T17:20:45.441Z,50.20
2019-03-19T17:23:12.031Z,49.97
2019-03-19T17:25:38.694Z,48.64
2019-03-19T17:28:05.495Z,49.54
2019-03-19T17:30:32.327Z,48.64
2019-03-19T17:32:59.123Z,49.34
2019-03-19T17:35:25.883Z,49.76
2019-03-19T17:37:52.674Z,51.15
2019-03-19T17:40:19.442Z,51.61
2019-03-19T17:42:46.233Z,52.80
2019-03-19T17:45:13.159Z,52.79
2019-03-19T17:47:39.984Z,54.71
2019-03-19T17:50:09.597Z,54.21
2019-03-19T17:52:36.402Z,54.50
2019-03-19T17:55:03.704Z,54.31
2019-03-19T17:57:30.289Z,55.82
2019-03-19T17:59:56.972Z,57.77
2019-03-19T18:02:24.417Z,59.06
2019-03-19T18:04:51.140Z,59.63
2019-03-19T18:07:17.798Z,59.58
2019-03-19T18:09:44.393Z,60.01
2019-03-19T18:12:11.160Z,60.73
2019-03-19T18:14:37.856Z,60.68
2019-03-19T18:17:04.629Z,61.68
2019-03-19T18:19:31.711Z,61.27
2019-03-19T18:21:58.391Z,60.60
2019-03-19T18:24:24.996Z,60.49
2019-03-19T18:26:51.676Z,61.96
2019-03-19T18:29:18.359Z,62.22
2019-03-19T18:31:45.042Z,62.87
2019-03-19T18:34:11.762Z,63.97
2019-03-19T18:36:38.832Z,64.31
2019-03-19T18:39:07.011Z,64.31
2019-03-19T18:41:33.679Z,64.58
2019-03-19T18:44:00.271Z,64.19
2019-03-19T18:46:26.839Z,64.20
2019-03-19T18:48:53.440Z,64.75
2019-03-19T18:51:20.138Z,64.80
2019-03-19T18:53:46.893Z,65.29
2019-03-19T18:56:13.586Z,64.15
2019-03-19T18:58:40.280Z,65.40
2019-03-19T19:01:06.975Z,65.91
2019-03-19T19:03:33.548Z,66.83
2019-03-19T19:06:00.122Z,67.21
2019-03-19T19:08:26.906Z,67.23
2019-03-19T19:10:53.476Z,66.73
2019-03-19T19:13:20.103Z,67.41
2019-03-19T19:15:46.689Z,67.23
2019-03-19T19:18:13.432Z,66.53
2019-03-19T19:20:40.106Z,64.96
2019-03-19T19:23:06.807Z,65.29
2019-03-19T19:25:33.541Z,65.75
2019-03-19T19:28:00.249Z,65.88
2019-03-19T19:30:27.059Z,65.80
2019-03-19T19:33:01.718Z,66.50
2019-03-19T19:35:22.491Z,66.70
2019-03-19T19:37:49.161Z,66.40
2019-03-19T19:40:15.974Z,66.72
2019-03-19T19:42:42.851Z,67.26
2019-03-19T19:45:09.706Z,68.11
2019-03-19T19:47:36.501Z,67.16
2019-03-19T19:50:04.225Z,67.04
2019-03-19T19:52:30.834Z,68.23
2019-03-19T19:54:57.428Z,68.11
2019-03-19T19:57:24.213Z,68.43
2019-03-19T19:59:50.909Z,67.72
2019-03-19T20:02:17.589Z,68.72
2019-03-19T20:04:44.379Z,68.54
2019-03-19T20:07:11.157Z,68.19
2019-03-19T20:09:37.863Z,68.68
2019-03-19T20:12:04.606Z,69.77
2019-03-19T20:14:31.402Z,70.42
2019-03-19T20:16:58.080Z,70.74
2019-03-19T20:19:24.767Z,71.27
2019-03-19T20:21:51.455Z,71.55
2019-03-19T20:24:18.127Z,71.67
2019-03-19T20:26:44.817Z,71.90
2019-03-19T20:29:11.389Z,72.74
2019-03-19T20:31:38.101Z,73.17
2019-03-19T20:34:04.780Z,73.57
2019-03-19T20:36:31.488Z,73.78
2019-03-19T20:38:58.166Z,74.29
2019-03-19T20:41:24.984Z,74.68
2019-03-19T20:43:51.748Z,75.29
2019-03-19T20:46:18.546Z,75.89
2019-03-19T20:48:45.230Z,76.04
2019-03-19T20:51:12.024Z,76.61
2019-03-19T20:53:38.812Z,77.17
2019-03-19T20:56:05.532Z,77.35
2019-03-19T20:58:42.867Z,77.27
2019-03-19T21:01:01.008Z,77.42
2019-03-19T21:03:35.501Z,76.53
2019-03-19T21:05:56.209Z,75.92
2019-03-19T21:08:22.886Z,76.05
2019-03-19T21:10:49.582Z,77.05
2019-03-19T21:13:16.270Z,76.68
2019-03-19T21:15:43.078Z,76.43
2019-03-19T21:18:09.876Z,76.98
2019-03-19T21:20:36.592Z,77.94
2019-03-19T21:23:03.367Z,79.00
2019-03-19T21:25:30.171Z,79.52
2019-03-19T21:27:56.840Z,79.71
2019-03-19T21:30:23.632Z,79.62
2019-03-19T21:32:50.398Z,80.20
2019-03-19T21:35:18.594Z,80.47
2019-03-19T21:37:45.269Z,80.69
2019-03-19T21:40:12.086Z,80.64
2019-03-19T21:42:39.103Z,80.55
2019-03-19T21:45:06.329Z,80.69
2019-03-19T21:47:33.026Z,81.33
2019-03-19T21:49:59.705Z,81.10
2019-03-19T21:52:26.399Z,80.82
2019-03-19T21:54:53.217Z,80.68
2019-03-19T21:57:19.920Z,80.97
2019-03-19T21:59:46.486Z,81.18
2019-03-19T22:02:13.194Z,81.79
2019-03-19T22:04:39.778Z,82.45
2019-03-19T22:07:06.470Z,82.35
2019-03-19T22:09:33.181Z,82.16
2019-03-19T22:11:59.980Z,82.18
2019-03-19T22:14:26.661Z,81.91
2019-03-19T22:16:53.255Z,81.82
2019-03-19T22:19:19.923Z,81.89
2019-03-19T22:21:46.520Z,82.22
2019-03-19T22:24:13.306Z,82.30
2019-03-19T22:26:40.006Z,82.20
2019-03-19T22:29:06.792Z,81.70
2019-03-19T22:31:33.479Z,81.63
2019-03-19T22:34:00.147Z,80.86
2019-03-19T22:36:26.842Z,81.01
2019-03-19T22:38:53.651Z,81.35
2019-03-19T22:41:20.328Z,82.00
2019-03-19T22:43:46.929Z,82.50
2019-03-19T22:46:21.272Z,82.83
2019-03-19T22:48:42.202Z,83.01
2019-03-19T22:51:08.897Z,83.21
2019-03-19T22:53:35.475Z,82.99
2019-03-19T22:56:02.164Z,82.96
2019-03-19T22:58:28.863Z,82.84
2019-03-19T23:00:57.654Z,83.07
2019-03-19T23:03:24.452Z,83.59
2019-03-19T23:05:51.264Z,83.84
2019-03-19T23:08:18.036Z,83.94
2019-03-19T23:10:44.864Z,84.37
2019-03-19T23:13:12.172Z,84.67
2019-03-19T23:15:38.937Z,85.21
2019-03-19T23:18:05.735Z,84.49
2019-03-19T23:20:32.509Z,84.62
2019-03-19T23:22:59.304Z,85.12
2019-03-19T23:25:26.077Z,84.60
2019-03-19T23:27:52.866Z,84.84
2019-03-19T23:30:19.666Z,84.76
2019-03-19T23:32:46.364Z,84.89
2019-03-19T23:35:13.029Z,85.15
2019-03-19T23:37:39.816Z,85.40
2019-03-19T23:40:06.610Z,86.03
2019-03-19T23:42:33.198Z,86.43
2019-03-19T23:45:00.037Z,86.49
2019-03-19T23:47:26.736Z,87.03
2019-03-19T23:49:53.312Z,86.99
2019-03-19T23:52:19.911Z,86.92
2019-03-19T23:54:46.586Z,86.50
2019-03-19T23:57:13.387Z,86.12
2019-03-19T23:59:40.067Z,86.08
